Time;durP1;ratioP1;P1;durP2;ratioP2;P2;SDS_P1;SDS_P2;PMS_P1;PMS_P2;Temp;Humidity;BMP_temperature;BMP_pressure;BME280_temperature;BME280_humidity;BME280_pressure;Samples;Min_cycle;Max_cycle;Signal;HPM_P1;HPM_P2
2024/03/12 00:00:43;;;;;;;0.98;0.52;;;;;;;8.11;84.41;94162.81;5122723;27;20454;-81
2024/03/12 00:03:09;;;;;;;1.83;0.60;;;;;;;8.01;86.15;94178.25;5134994;27;20416;-81
2024/03/12 00:05:34;;;;;;;1.00;0.70;;;;;;;8.16;86.71;94183.09;5120831;27;20528;-80
2024/03/12 00:08:01;;;;;;;2.90;1.10;;;;;;;8.09;88.10;94197.50;5103759;27;20110;-81
2024/03/12 00:10:27;;;;;;;2.38;0.70;;;;;;;8.07;86.77;94206.19;5119639;27;20031;-81
2024/03/12 00:12:53;;;;;;;1.35;0.50;;;;;;;8.23;85.88;94182.47;5121148;27;20022;-82
2024/03/12 00:15:22;;;;;;;0.70;0.50;;;;;;;8.25;85.54;94179.75;5109725;27;20046;-78
2024/03/12 00:17:49;;;;;;;0.52;0.40;;;;;;;8.00;87.38;94181.78;5126983;27;20084;-83
2024/03/12 00:20:17;;;;;;;1.02;0.60;;;;;;;8.05;86.15;94200.34;5130959;27;20030;-82
2024/03/12 00:22:47;;;;;;;2.00;0.50;;;;;;;7.86;87.12;94204.56;5121632;27;20038;-84
2024/03/12 00:25:19;;;;;;;2.60;0.70;;;;;;;8.18;87.40;94205.31;5109772;27;20049;-85
2024/03/12 00:27:46;;;;;;;2.08;1.15;;;;;;;7.96;87.56;94190.75;5105484;27;20085;-85
2024/03/12 00:30:13;;;;;;;3.65;1.38;;;;;;;8.26;88.82;94220.19;5109587;27;20035;-83
2024/03/12 00:32:38;;;;;;;2.65;1.40;;;;;;;8.27;88.40;94211.47;5123129;27;20079;-76
2024/03/12 00:35:05;;;;;;;2.70;1.58;;;;;;;8.16;88.85;94173.59;5106574;27;20027;-75
2024/03/12 00:37:33;;;;;;;3.13;1.35;;;;;;;7.83;90.98;94153.94;5110260;27;20075;-79
2024/03/12 00:39:59;;;;;;;3.80;2.28;;;;;;;7.99;91.49;94200.81;5142834;27;20038;-84
2024/03/12 00:42:27;;;;;;;3.95;2.35;;;;;;;8.14;90.97;94209.13;5124368;27;20107;-83
2024/03/12 00:44:53;;;;;;;3.90;1.85;;;;;;;7.54;91.79;94162.28;5143976;27;21047;-83
2024/03/12 00:47:21;;;;;;;2.53;1.25;;;;;;;7.64;91.76;94175.28;5086614;27;20039;-82
2024/03/12 00:49:47;;;;;;;3.15;1.10;;;;;;;7.64;91.81;94177.88;5136331;27;20524;-80
2024/03/12 00:52:12;;;;;;;4.15;1.45;;;;;;;7.79;91.69;94173.22;5112798;27;20042;-81
2024/03/12 00:54:38;;;;;;;3.38;1.20;;;;;;;7.86;92.14;94176.94;5108359;27;20023;-82
2024/03/12 00:57:06;;;;;;;1.85;1.00;;;;;;;7.78;93.43;94197.44;5107854;27;20046;-82
2024/03/12 00:59:32;;;;;;;3.05;0.88;;;;;;;7.91;92.90;94186.88;5123524;27;20438;-82
2024/03/12 01:01:57;;;;;;;2.00;0.90;;;;;;;8.02;90.51;94171.31;5134682;27;20039;-82
2024/03/12 01:04:23;;;;;;;2.33;1.45;;;;;;;7.89;90.12;94166.34;5096759;27;20119;-81
2024/03/12 01:06:49;;;;;;;4.03;1.05;;;;;;;7.64;91.20;94154.59;5129594;27;20030;-81
2024/03/12 01:09:17;;;;;;;2.85;1.20;;;;;;;7.81;90.93;94160.97;5140251;27;20079;-85
2024/03/12 01:11:44;;;;;;;4.60;1.23;;;;;;;7.77;90.81;94157.00;5142657;27;20105;-86
2024/03/12 01:14:09;;;;;;;2.95;1.10;;;;;;;7.62;91.71;94153.91;5121453;27;20252;-86
2024/03/12 01:16:35;;;;;;;2.10;1.25;;;;;;;7.58;92.08;94165.44;5118577;27;20031;-86
2024/03/12 01:19:00;;;;;;;2.70;0.80;;;;;;;7.80;91.76;94169.66;5113821;27;20517;-84
2024/03/12 01:21:26;;;;;;;3.50;1.05;;;;;;;7.67;91.06;94156.94;5132427;27;20415;-86
2024/03/12 01:23:51;;;;;;;2.90;1.15;;;;;;;7.53;91.52;94162.41;5132944;27;20079;-87
2024/03/12 01:26:17;;;;;;;3.78;1.90;;;;;;;7.46;91.74;94159.50;5137828;27;20038;-87
2024/03/12 01:28:42;;;;;;;4.35;2.53;;;;;;;7.31;91.79;94153.00;5133672;27;20053;-86
2024/03/12 01:31:07;;;;;;;2.95;2.42;;;;;;;7.13;92.07;94130.28;5107515;27;20409;-86
2024/03/12 01:33:34;;;;;;;4.43;1.77;;;;;;;7.15;92.61;94132.72;5122676;27;20481;-86
2024/03/12 01:36:18;;;;;;;2.25;1.40;;;;;;;7.18;92.26;94126.50;5132691;27;20031;-86
2024/03/12 01:38:48;;;;;;;2.00;1.30;;;;;;;7.06;91.79;94134.28;5118501;27;20441;-85
2024/03/12 01:41:15;;;;;;;1.40;0.80;;;;;;;7.03;91.67;94119.03;5103796;27;20050;-86
2024/03/12 01:43:41;;;;;;;0.90;0.60;;;;;;;6.96;92.28;94124.78;5105524;27;20023;-85
2024/03/12 01:46:08;;;;;;;0.90;0.50;;;;;;;6.83;92.42;94099.16;5116581;27;20477;-85
2024/03/12 01:48:33;;;;;;;0.98;0.50;;;;;;;6.92;91.12;94091.47;5115964;27;20419;-85
2024/03/12 01:50:59;;;;;;;1.48;0.45;;;;;;;6.82;91.42;94097.50;5095037;27;20039;-86
2024/03/12 01:53:24;;;;;;;1.63;0.60;;;;;;;7.02;91.37;94108.81;5088964;27;20027;-86
2024/03/12 01:55:51;;;;;;;1.65;0.60;;;;;;;7.06;91.11;94110.22;5110068;27;20045;-85
2024/03/12 01:58:16;;;;;;;1.02;0.50;;;;;;;7.15;91.03;94107.69;5135171;27;20034;-85
2024/03/12 02:00:43;;;;;;;0.90;0.50;;;;;;;7.27;90.53;94107.66;5122471;27;20031;-85
2024/03/12 02:03:09;;;;;;;1.55;0.70;;;;;;;7.08;90.99;94090.25;5110807;27;20801;-86
2024/03/12 02:05:34;;;;;;;1.58;0.70;;;;;;;6.94;92.40;94097.34;5087526;27;20027;-85
2024/03/12 02:08:01;;;;;;;2.47;0.80;;;;;;;7.19;90.88;94086.78;5090690;27;20035;-85
2024/03/12 02:10:27;;;;;;;0.80;0.47;;;;;;;7.11;92.05;94061.59;5094372;27;20028;-86
2024/03/12 02:12:52;;;;;;;3.50;0.50;;;;;;;7.03;91.78;94051.06;5114275;27;20038;-86
2024/03/12 02:15:18;;;;;;;0.90;0.50;;;;;;;6.87;90.28;94035.97;5119430;27;20106;-83
2024/03/12 02:17:46;;;;;;;0.57;0.40;;;;;;;6.86;89.99;94026.63;5141110;27;20416;-85
2024/03/12 02:20:12;;;;;;;1.27;0.77;;;;;;;6.84;90.95;94028.50;5083674;27;20497;-86
2024/03/12 02:22:38;;;;;;;1.95;1.25;;;;;;;6.75;92.36;94022.31;5111388;27;20122;-84
2024/03/12 02:25:10;;;;;;;2.13;0.70;;;;;;;6.77;91.03;93983.44;5131575;27;20027;-85
2024/03/12 02:27:35;;;;;;;;;;;;;;;6.72;91.86;93982.06;5117037;27;20115;-84
2024/03/12 02:30:00;;;;;;;2.03;0.50;;;;;;;6.70;91.22;93968.47;5115150;27;19915;-84
2024/03/12 02:32:26;;;;;;;0.90;0.50;;;;;;;6.66;91.68;93955.94;5130109;27;20047;-86
2024/03/12 02:34:51;;;;;;;3.00;1.30;;;;;;;6.66;90.89;93949.03;5098653;27;20504;-84
2024/03/12 02:37:17;;;;;;;2.05;0.90;;;;;;;6.76;88.97;93931.00;5123709;27;20095;-84
2024/03/12 02:39:42;;;;;;;2.28;0.80;;;;;;;6.75;88.04;93934.53;5113644;27;20026;-85
2024/03/12 02:42:08;;;;;;;1.23;0.70;;;;;;;6.84;88.96;93953.63;5094898;27;20039;-86
2024/03/12 02:44:34;;;;;;;1.83;1.02;;;;;;;6.90;90.26;93963.44;5121755;27;20023;-84
2024/03/12 02:47:00;;;;;;;1.52;0.90;;;;;;;6.77;90.83;93958.47;5107430;27;20082;-84
2024/03/12 02:49:26;;;;;;;1.75;1.13;;;;;;;6.85;89.97;93966.41;5120363;27;20029;-86
2024/03/12 02:51:51;;;;;;;2.00;1.30;;;;;;;6.93;90.49;93981.25;5098684;27;20050;-85
2024/03/12 02:54:18;;;;;;;2.75;1.50;;;;;;;7.07;89.41;93993.03;5128343;27;20401;-85
2024/03/12 02:56:43;;;;;;;1.75;0.90;;;;;;;7.19;88.27;94011.88;5094978;27;20397;-85
2024/03/12 02:59:12;;;;;;;2.00;0.95;;;;;;;7.14;87.81;94022.59;5111947;27;20026;-85
2024/03/12 03:01:38;;;;;;;1.50;0.80;;;;;;;7.22;86.54;94019.41;5131384;27;21107;-84
2024/03/12 03:04:04;;;;;;;1.77;1.00;;;;;;;7.28;88.35;94026.66;5128789;27;20027;-85
2024/03/12 03:06:29;;;;;;;1.90;0.93;;;;;;;7.15;88.62;94024.22;5113217;27;20109;-86
2024/03/12 03:08:55;;;;;;;1.52;0.93;;;;;;;7.14;89.39;94031.16;5130522;27;20408;-81
2024/03/12 03:11:20;;;;;;;3.85;1.25;;;;;;;7.00;89.36;94030.66;5127559;27;20408;-85
2024/03/12 03:13:45;;;;;;;1.90;1.33;;;;;;;6.98;89.44;94028.19;5119238;27;20481;-85
2024/03/12 03:16:11;;;;;;;2.15;1.10;;;;;;;7.11;90.12;94039.16;5111663;27;20045;-85
2024/03/12 03:18:37;;;;;;;2.00;1.20;;;;;;;7.14;90.58;94044.09;5097607;27;20031;-85
2024/03/12 03:21:02;;;;;;;1.70;1.08;;;;;;;7.05;90.81;94038.84;5131206;27;20087;-85
2024/03/12 03:23:28;;;;;;;1.70;1.00;;;;;;;7.13;91.42;94031.28;5113678;27;20027;-83
2024/03/12 03:25:53;;;;;;;2.13;1.40;;;;;;;7.01;91.65;94051.19;5095135;27;20019;-84
2024/03/12 03:28:18;;;;;;;2.80;1.60;;;;;;;6.94;91.77;94044.88;5100284;27;20077;-85
2024/03/12 03:30:44;;;;;;;2.30;1.60;;;;;;;6.98;91.71;94055.78;5124398;27;20014;-84
2024/03/12 03:33:11;;;;;;;2.55;1.63;;;;;;;6.90;92.31;94043.47;5129897;27;20113;-85
2024/03/12 03:35:37;;;;;;;2.92;1.75;;;;;;;6.92;92.54;94054.50;5129720;27;20019;-84
2024/03/12 03:38:03;;;;;;;3.15;2.20;;;;;;;6.99;92.48;94047.09;5127159;27;20029;-84
2024/03/12 03:40:29;;;;;;;3.33;2.00;;;;;;;7.03;91.48;94051.88;5104798;27;20454;-85
2024/03/12 03:42:56;;;;;;;2.55;1.80;;;;;;;7.03;92.09;94045.91;5105518;27;20043;-85
2024/03/12 03:45:23;;;;;;;3.83;2.30;;;;;;;6.93;92.89;94063.88;5084126;27;20487;-85
2024/03/12 03:47:49;;;;;;;2.97;2.20;;;;;;;7.01;92.42;94058.13;5109448;27;20046;-85
2024/03/12 03:50:14;;;;;;;4.28;2.17;;;;;;;6.90;92.30;94051.22;5126084;27;20034;-84
2024/03/12 03:52:40;;;;;;;5.35;2.58;;;;;;;7.01;92.01;94051.19;5107043;27;20039;-84
2024/03/12 03:55:06;;;;;;;3.47;2.58;;;;;;;7.08;92.22;94052.34;5127209;27;20415;-86
2024/03/12 03:57:32;;;;;;;3.50;2.70;;;;;;;7.15;90.79;94044.91;5099326;27;20031;-85
2024/03/12 03:59:57;;;;;;;3.88;2.40;;;;;;;7.12;91.71;94058.06;5093859;28;20373;-83
2024/03/12 04:02:23;;;;;;;4.25;2.85;;;;;;;7.23;91.03;94062.38;5110529;27;20061;-85
2024/03/12 04:04:49;;;;;;;3.65;2.60;;;;;;;7.11;91.54;94059.84;5117548;27;20020;-85
2024/03/12 04:07:15;;;;;;;4.60;3.10;;;;;;;6.93;91.77;94061.31;5094471;27;20122;-85
2024/03/12 04:09:41;;;;;;;3.35;2.70;;;;;;;6.88;92.22;94058.28;5105877;27;20023;-84
2024/03/12 04:12:07;;;;;;;4.20;3.05;;;;;;;6.83;92.39;94030.25;5093980;27;20031;-86
2024/03/12 04:14:33;;;;;;;5.00;3.00;;;;;;;7.02;92.21;94041.66;5103077;27;20023;-84
2024/03/12 04:16:58;;;;;;;3.90;3.10;;;;;;;6.86;92.17;94032.59;5093901;28;20039;-85
2024/03/12 04:19:24;;;;;;;4.95;2.90;;;;;;;6.82;92.53;94041.50;5126374;27;20102;-83
2024/03/12 04:21:49;;;;;;;4.47;3.38;;;;;;;6.83;92.86;94040.59;5106068;27;20039;-85
2024/03/12 04:24:15;;;;;;;5.45;3.50;;;;;;;6.69;93.04;94052.00;5125631;27;20506;-85
2024/03/12 04:26:45;;;;;;;5.13;3.50;;;;;;;6.83;92.70;94044.94;5110378;28;20059;-84
2024/03/12 04:29:10;;;;;;;5.03;3.85;;;;;;;6.80;93.05;94050.31;5110051;28;20113;-85
2024/03/12 04:31:38;;;;;;;5.80;4.30;;;;;;;6.84;92.37;94042.22;5127461;28;20043;-85
2024/03/12 04:34:04;;;;;;;5.68;4.50;;;;;;;6.70;92.06;94052.81;5125024;28;20416;-85
2024/03/12 04:36:29;;;;;;;6.13;4.32;;;;;;;6.50;93.18;94054.41;5126976;28;20031;-85
2024/03/12 04:38:54;;;;;;;5.53;4.22;;;;;;;6.71;92.59;94042.41;5109280;28;20024;-85
2024/03/12 04:41:23;;;;;;;5.68;4.57;;;;;;;6.67;92.39;94046.16;5110327;28;20031;-85
2024/03/12 04:43:48;;;;;;;4.55;3.88;;;;;;;6.64;91.45;94038.66;5126267;27;20485;-85
2024/03/12 04:46:14;;;;;;;4.75;3.70;;;;;;;6.79;91.71;94051.28;5109282;28;20042;-85
2024/03/12 04:48:39;;;;;;;4.78;4.28;;;;;;;6.72;91.21;94045.78;5126638;27;20404;-85
2024/03/12 04:51:05;;;;;;;5.53;4.50;;;;;;;6.67;91.14;94035.81;5110415;27;20092;-86
2024/03/12 04:53:30;;;;;;;5.40;3.95;;;;;;;6.84;90.67;94041.41;5111509;27;20162;-86
2024/03/12 04:55:57;;;;;;;5.78;4.25;;;;;;;6.93;89.60;94050.97;5094568;28;20043;-84
2024/03/12 04:58:23;;;;;;;6.28;4.43;;;;;;;6.80;90.24;94034.81;5129725;27;20504;-83
2024/03/12 05:00:49;;;;;;;6.35;4.25;;;;;;;6.81;90.87;94051.97;5131202;27;20027;-85
2024/03/12 05:03:14;;;;;;;6.00;4.93;;;;;;;6.69;92.07;94048.63;5128273;27;20022;-85
2024/03/12 05:05:40;;;;;;;5.68;4.88;;;;;;;6.86;91.93;94047.25;5131753;27;20417;-85
2024/03/12 05:08:06;;;;;;;6.35;5.50;;;;;;;6.74;91.95;94040.47;5130584;27;20080;-86
2024/03/12 05:10:31;;;;;;;7.93;4.82;;;;;;;6.85;92.44;94045.59;5132236;27;20034;-83
2024/03/12 05:12:57;;;;;;;6.20;4.32;;;;;;;6.78;92.61;94034.97;5093664;27;20031;-85
2024/03/12 05:15:22;;;;;;;5.85;4.10;;;;;;;6.75;93.49;94052.47;5130638;27;20031;-85
2024/03/12 05:17:52;;;;;;;5.45;3.95;;;;;;;6.78;93.73;94044.47;5112159;27;20023;-85
2024/03/12 05:20:17;;;;;;;6.68;4.07;;;;;;;6.92;93.21;94042.41;5130096;27;20035;-84
2024/03/12 05:22:46;;;;;;;6.30;4.30;;;;;;;7.09;92.40;94042.81;5128385;27;20039;-86
2024/03/12 05:25:27;;;;;;;5.70;4.28;;;;;;;7.07;92.25;94047.28;5113074;27;20034;-83
2024/03/12 05:27:53;;;;;;;5.57;4.43;;;;;;;7.18;91.88;94038.66;5110728;27;20131;-84
2024/03/12 05:30:22;;;;;;;4.85;3.42;;;;;;;7.12;92.08;94014.97;5095302;27;20043;-84
2024/03/12 05:32:53;;;;;;;5.65;3.65;;;;;;;7.34;92.17;94041.63;5111314;27;20039;-86
2024/03/12 05:35:22;;;;;;;19.58;17.33;;;;;;;7.41;91.49;94037.63;5113664;27;20424;-85
2024/03/12 05:38:03;;;;;;;9.13;6.75;;;;;;;7.39;91.71;94053.22;5096163;27;20035;-85
2024/03/12 05:48:42;;;;;;;5.47;4.20;;;;;;;7.42;90.56;94044.41;5130443;27;20476;-85
2024/03/12 05:51:08;;;;;;;5.13;3.72;;;;;;;7.41;90.77;94060.88;5111555;27;20101;-85
2024/03/12 05:53:39;;;;;;;6.78;4.40;;;;;;;7.53;90.50;94064.19;5093625;27;20094;-83
2024/03/12 05:56:07;;;;;;;;;;;;;;;7.74;89.47;94053.81;5098032;27;20027;-85
2024/03/12 05:58:32;;;;;;;4.25;3.53;;;;;;;7.75;89.29;94038.19;5112464;27;19920;-84
2024/03/12 06:00:58;;;;;;;3.88;3.20;;;;;;;8.37;88.42;94059.66;5110443;27;20027;-85
2024/03/12 06:03:24;;;;;;;5.72;4.03;;;;;;;9.55;83.84;94046.66;5108939;27;20024;-84
2024/03/12 06:05:49;;;;;;;4.30;3.60;;;;;;;10.50;79.17;94057.84;5111179;27;20027;-85
2024/03/12 06:08:15;;;;;;;5.43;4.32;;;;;;;11.15;73.44;94068.91;5129512;27;20038;-86
2024/03/12 06:10:41;;;;;;;4.40;3.00;;;;;;;11.71;71.22;94066.13;5111207;27;20483;-85
2024/03/12 06:13:06;;;;;;;2.83;2.20;;;;;;;12.53;68.82;94063.00;5092834;27;20087;-86
2024/03/12 06:15:31;;;;;;;3.17;2.40;;;;;;;12.98;65.11;94079.25;5130615;27;20019;-86
2024/03/12 06:17:57;;;;;;;3.95;2.20;;;;;;;12.63;64.57;94077.72;5111146;27;20039;-85
2024/03/12 06:20:22;;;;;;;6.28;2.20;;;;;;;12.62;64.73;94060.44;5110036;27;20021;-85
2024/03/12 06:22:48;;;;;;;3.42;1.92;;;;;;;12.87;61.66;94069.13;5090690;27;20062;-84
2024/03/12 06:25:13;;;;;;;3.22;2.05;;;;;;;12.78;63.00;94075.31;5125371;27;20031;-84
2024/03/12 06:27:39;;;;;;;4.05;2.28;;;;;;;13.61;59.05;94070.91;5120243;27;20118;-83
2024/03/12 06:30:05;;;;;;;3.00;2.20;;;;;;;14.66;58.30;94073.50;5107400;27;20046;-84
2024/03/12 06:32:32;;;;;;;3.45;2.20;;;;;;;15.99;56.25;94077.72;5086760;27;20398;-85
2024/03/12 06:34:57;;;;;;;14.77;8.18;;;;;;;16.27;54.10;94070.91;5083753;27;20054;-84
2024/03/12 06:37:28;;;;;;;4.30;3.10;;;;;;;17.34;49.49;94078.28;5102775;27;20035;-84
2024/03/12 06:39:54;;;;;;;4.13;3.00;;;;;;;18.13;49.18;94069.50;5124628;27;20498;-85
2024/03/12 06:42:25;;;;;;;3.65;2.58;;;;;;;18.23;47.51;94083.16;5123562;27;20412;-84
2024/03/12 06:44:52;;;;;;;4.40;2.97;;;;;;;18.98;46.01;94075.50;5105711;27;20113;-75
2024/03/12 06:47:19;;;;;;;4.78;3.85;;;;;;;19.65;45.91;94084.41;5127657;27;20513;-76
2024/03/12 06:49:45;;;;;;;5.53;4.30;;;;;;;20.56;42.67;94083.84;5110030;27;20031;-75
2024/03/12 06:52:16;;;;;;;5.43;3.35;;;;;;;20.78;39.85;94073.84;5127363;27;20054;-76
2024/03/12 06:54:45;;;;;;;3.28;1.83;;;;;;;18.96;42.77;94088.03;5102583;28;20464;-76
2024/03/12 06:57:11;;;;;;;4.00;2.00;;;;;;;18.26;45.00;94076.69;5111598;27;20111;-75
2024/03/12 06:59:36;;;;;;;3.58;2.53;;;;;;;16.89;47.59;94068.91;5090629;27;20023;-76
2024/03/12 07:02:02;;;;;;;3.97;2.95;;;;;;;16.88;48.93;94077.75;5111142;27;20420;-75
2024/03/12 07:04:34;;;;;;;6.28;3.30;;;;;;;18.41;46.69;94068.69;5123643;27;20035;-74
2024/03/12 07:07:07;;;;;;;5.07;3.20;;;;;;;19.15;43.34;94082.03;5109904;27;20032;-75
2024/03/12 07:09:37;;;;;;;13.63;8.95;;;;;;;18.96;43.54;94074.88;5124551;27;20022;-74
2024/03/12 07:12:05;;;;;;;4.80;4.35;;;;;;;19.81;41.01;94088.53;5109343;27;20087;-76
2024/03/12 07:14:39;;;;;;;4.63;3.90;;;;;;;21.47;38.08;94074.19;5128956;27;20401;-75
2024/03/12 07:17:07;;;;;;;6.35;4.60;;;;;;;19.67;41.58;94078.94;5113651;27;20111;-75
2024/03/12 07:19:37;;;;;;;5.72;4.45;;;;;;;20.25;39.78;94080.00;5110786;27;20030;-76
2024/03/12 07:22:13;;;;;;;5.50;4.20;;;;;;;16.89;46.23;94072.34;5095751;27;20084;-75
2024/03/12 07:24:39;;;;;;;43.42;25.83;;;;;;;15.37;51.61;94076.84;5129620;27;20031;-74
2024/03/12 07:27:04;;;;;;;14.93;9.00;;;;;;;14.28;54.96;94069.84;5112207;27;20058;-75
2024/03/12 07:29:32;;;;;;;24.23;14.00;;;;;;;14.70;54.74;94093.06;5112230;27;20023;-75
2024/03/12 07:32:03;;;;;;;22.02;11.85;;;;;;;13.71;56.82;94085.59;5095339;27;20058;-75
2024/03/12 07:34:32;;;;;;;21.27;12.77;;;;;;;12.96;60.51;94082.03;5129086;27;20518;-75
2024/03/12 07:36:59;;;;;;;7.75;6.30;;;;;;;12.43;62.29;94087.56;5112491;28;20380;-75
2024/03/12 07:39:24;;;;;;;9.38;5.75;;;;;;;12.21;63.93;94102.75;5128615;27;20023;-75
2024/03/12 07:41:52;;;;;;;9.20;7.47;;;;;;;11.66;66.31;94065.75;5128618;27;20103;-75
2024/03/12 07:44:19;;;;;;;13.43;8.60;;;;;;;11.21;68.69;94092.69;5113423;28;20037;-75
2024/03/12 07:46:44;;;;;;;28.65;17.27;;;;;;;11.80;68.03;94088.63;5131097;27;20114;-75
2024/03/12 07:49:11;;;;;;;6.95;6.25;;;;;;;12.21;65.31;94091.53;5130893;27;20058;-75
2024/03/12 07:51:37;;;;;;;8.93;6.95;;;;;;;12.05;67.00;94087.84;5113790;28;20027;-75
2024/03/12 07:54:06;;;;;;;9.73;7.63;;;;;;;12.11;67.22;94062.97;5096544;28;20042;-75
2024/03/12 07:56:32;;;;;;;9.27;8.20;;;;;;;12.10;68.02;94086.56;5130871;28;20031;-75
2024/03/12 07:58:58;;;;;;;15.63;11.48;;;;;;;11.62;68.95;94091.25;5130780;28;20458;-75
2024/03/12 08:01:26;;;;;;;12.68;9.52;;;;;;;11.47;69.01;94090.97;5113776;28;20507;-75
2024/03/12 08:03:52;;;;;;;10.65;9.25;;;;;;;11.05;70.79;94073.34;5130763;28;20027;-75
2024/03/12 08:06:18;;;;;;;10.75;7.47;;;;;;;11.33;68.99;94091.50;5130829;28;20046;-75
2024/03/12 08:08:44;;;;;;;12.88;9.20;;;;;;;11.01;69.88;94097.22;5113670;28;20408;-75
2024/03/12 08:11:09;;;;;;;17.77;10.30;;;;;;;10.86;71.00;94082.09;5096568;28;20039;-75
2024/03/12 08:13:35;;;;;;;10.95;8.73;;;;;;;10.69;71.52;94078.50;5131888;27;20023;-75
2024/03/12 08:16:00;;;;;;;16.88;10.68;;;;;;;10.50;72.43;94089.00;5096459;28;20059;-74
2024/03/12 08:18:26;;;;;;;12.45;9.43;;;;;;;10.27;72.98;94091.97;5130833;28;20100;-75
2024/03/12 08:20:52;;;;;;;15.55;11.65;;;;;;;10.12;73.07;94089.97;5096601;28;20019;-75
2024/03/12 08:23:19;;;;;;;16.25;10.73;;;;;;;10.22;73.03;94088.13;5096462;27;20453;-75
2024/03/12 08:25:46;;;;;;;11.65;9.35;;;;;;;10.26;72.46;94100.69;5117392;27;20023;-75
2024/03/12 08:28:11;;;;;;;10.07;8.25;;;;;;;10.34;72.00;94104.41;5134741;27;20509;-75
2024/03/12 08:30:37;;;;;;;15.65;9.80;;;;;;;10.44;71.66;94099.97;5134519;27;20038;-75
2024/03/12 08:33:03;;;;;;;10.43;6.72;;;;;;;10.24;71.20;94079.25;5134409;27;20099;-75
2024/03/12 08:35:29;;;;;;;6.80;5.38;;;;;;;10.54;68.94;94094.75;5117496;27;20027;-75
2024/03/12 08:37:54;;;;;;;6.32;5.35;;;;;;;10.70;70.79;94094.94;5136167;27;20027;-75
2024/03/12 08:40:20;;;;;;;5.93;5.10;;;;;;;10.76;70.69;94109.94;5134524;27;20038;-75
2024/03/12 08:42:45;;;;;;;5.20;4.20;;;;;;;10.69;69.09;94101.88;5117189;27;20537;-75
2024/03/12 08:45:14;;;;;;;5.82;4.00;;;;;;;10.71;69.50;94089.56;5100312;27;20473;-75
2024/03/12 08:47:40;;;;;;;4.35;3.30;;;;;;;10.91;67.40;94108.47;5117698;27;20019;-75
2024/03/12 08:50:07;;;;;;;8.55;3.70;;;;;;;10.74;69.03;94094.47;5100187;27;20034;-75
2024/03/12 08:52:35;;;;;;;11.38;7.68;;;;;;;11.08;69.70;94099.06;5134182;27;20465;-75
2024/03/12 08:55:01;;;;;;;5.10;3.60;;;;;;;11.25;68.23;94097.44;5134160;27;20114;-75
2024/03/12 08:57:26;;;;;;;4.60;3.28;;;;;;;11.66;65.94;94096.97;5134271;27;20095;-75
2024/03/12 08:59:52;;;;;;;6.28;3.97;;;;;;;11.36;68.34;94099.81;5099977;27;20031;-75
2024/03/12 09:02:18;;;;;;;12.75;6.63;;;;;;;10.93;68.68;94090.94;5116842;27;20063;-75
2024/03/12 09:04:44;;;;;;;6.30;4.10;;;;;;;11.19;68.48;94106.63;5135277;27;20072;-75
2024/03/12 09:07:09;;;;;;;4.72;3.22;;;;;;;11.23;67.66;94108.94;5116789;27;20140;-75
2024/03/12 09:09:35;;;;;;;19.60;10.68;;;;;;;11.24;67.32;94108.81;5100034;27;20027;-75
2024/03/12 09:12:00;;;;;;;4.50;3.50;;;;;;;11.44;67.27;94106.06;5133672;27;20028;-75
2024/03/12 09:14:26;;;;;;;4.07;3.20;;;;;;;11.37;67.06;94103.25;5134019;27;20027;-74
2024/03/12 09:16:51;;;;;;;22.08;12.57;;;;;;;10.89;67.80;94099.19;5099744;27;20038;-75
2024/03/12 09:19:17;;;;;;;22.92;11.52;;;;;;;10.70;69.30;94100.94;5116601;27;20031;-75
2024/03/12 09:21:43;;;;;;;19.05;9.95;;;;;;;11.01;68.62;94100.63;5133640;27;20396;-75
2024/03/12 09:24:09;;;;;;;8.57;5.57;;;;;;;10.92;69.30;94073.75;5135022;27;20053;-75
2024/03/12 09:26:35;;;;;;;7.65;4.60;;;;;;;11.26;67.70;94064.47;5133479;27;20497;-75
2024/03/12 09:29:01;;;;;;;8.73;4.97;;;;;;;11.38;67.24;94078.88;5116239;27;20024;-75
2024/03/12 09:31:27;;;;;;;9.00;5.68;;;;;;;11.49;65.62;94050.03;5133527;27;20498;-75
2024/03/12 09:33:54;;;;;;;4.97;3.60;;;;;;;11.44;66.02;94070.44;5116361;27;20489;-75
2024/03/12 09:36:20;;;;;;;5.05;3.97;;;;;;;11.38;66.54;94068.47;5132333;27;20031;-75
2024/03/12 09:38:47;;;;;;;7.00;3.90;;;;;;;11.29;66.66;94080.56;5116067;27;20484;-75
2024/03/12 09:41:15;;;;;;;4.70;3.10;;;;;;;11.30;67.56;94064.00;5134160;27;20035;-75
2024/03/12 09:43:43;;;;;;;5.63;2.80;;;;;;;11.34;67.13;94061.94;5116647;27;20031;-75
2024/03/12 09:46:09;;;;;;;4.28;3.30;;;;;;;11.29;68.21;94064.16;5099985;27;20043;-75
2024/03/12 09:48:36;;;;;;;4.30;2.85;;;;;;;11.36;66.60;94049.59;5116208;27;20026;-75
2024/03/12 09:51:03;;;;;;;5.88;4.30;;;;;;;11.36;68.45;94059.97;5099249;27;20063;-75
2024/03/12 09:53:28;;;;;;;7.20;5.32;;;;;;;11.39;69.16;94070.09;5116170;27;20516;-75
2024/03/12 09:55:54;;;;;;;6.97;4.00;;;;;;;11.38;68.25;94060.66;5133128;27;20104;-75
2024/03/12 09:58:20;;;;;;;4.28;3.38;;;;;;;11.45;67.78;94055.66;5098914;27;20520;-75
2024/03/12 10:00:46;;;;;;;7.35;4.80;;;;;;;11.12;69.26;94038.03;5115513;27;20091;-75
2024/03/12 10:03:11;;;;;;;28.92;12.95;;;;;;;11.12;69.96;94039.81;5115948;27;20023;-75
2024/03/12 10:05:40;;;;;;;9.30;6.07;;;;;;;11.08;70.12;94035.84;5132939;27;20030;-75
2024/03/12 10:08:16;;;;;;;16.85;7.50;;;;;;;11.20;69.38;94034.69;5116135;27;20110;-75
2024/03/12 10:10:46;;;;;;;10.85;7.00;;;;;;;11.31;70.07;94049.22;5132633;27;20027;-75
2024/03/12 10:13:15;;;;;;;7.05;5.85;;;;;;;11.55;69.74;94036.41;5132393;27;20030;-75
2024/03/12 10:15:56;;;;;;;8.48;5.88;;;;;;;11.77;68.47;94042.91;5099280;27;20019;-75
2024/03/12 10:18:22;;;;;;;10.95;6.38;;;;;;;11.83;67.74;94042.28;5132671;27;20026;-75
2024/03/12 10:20:54;;;;;;;7.85;5.55;;;;;;;11.98;66.23;94037.38;5132478;27;20043;-75
2024/03/12 10:23:21;;;;;;;7.85;6.20;;;;;;;11.39;66.43;94024.13;5099614;27;20024;-75
2024/03/12 10:25:46;;;;;;;3.38;2.20;;;;;;;11.22;63.86;94021.53;5115411;27;20677;-75
2024/03/12 10:28:14;;;;;;;1.83;0.95;;;;;;;11.48;60.41;94026.75;5111907;28;20055;-75
2024/03/12 10:30:40;;;;;;;1.40;0.80;;;;;;;11.62;60.54;94023.63;5094874;28;20024;-75
2024/03/12 10:33:14;;;;;;;2.63;1.50;;;;;;;11.50;62.37;94017.03;5094937;28;20039;-75
2024/03/12 10:35:44;;;;;;;2.35;1.40;;;;;;;11.61;62.38;94017.59;5094688;28;20505;-75
2024/03/12 10:38:27;;;;;;;13.00;6.47;;;;;;;11.66;63.23;94018.94;5095206;28;20024;-75
2024/03/12 10:40:56;;;;;;;11.65;6.95;;;;;;;12.12;62.33;94004.75;5111860;28;20024;-75
2024/03/12 10:43:24;;;;;;;9.00;5.43;;;;;;;12.52;61.62;94011.06;5111544;28;20034;-75
2024/03/12 10:45:49;;;;;;;5.35;2.83;;;;;;;12.76;62.16;93999.91;5111604;28;20558;-75
2024/03/12 10:48:15;;;;;;;3.97;2.90;;;;;;;13.09;61.54;93997.31;5077080;28;20036;-75
2024/03/12 10:50:41;;;;;;;12.80;6.90;;;;;;;12.86;60.35;93991.94;5111508;28;20048;-75
2024/03/12 10:53:07;;;;;;;6.28;3.55;;;;;;;13.36;59.74;93993.63;5077710;28;20027;-75
2024/03/12 10:55:33;;;;;;;16.20;7.40;;;;;;;13.38;58.65;93974.22;5094661;28;20036;-75
2024/03/12 10:58:00;;;;;;;9.20;5.55;;;;;;;13.43;56.66;93980.72;5111223;28;20032;-75
2024/03/12 11:00:28;;;;;;;5.60;2.70;;;;;;;13.45;55.85;93970.94;5094400;28;20125;-75
2024/03/12 11:02:53;;;;;;;5.03;3.15;;;;;;;13.96;55.94;93963.69;5094741;28;20031;-75
2024/03/12 11:05:21;;;;;;;4.00;2.88;;;;;;;14.26;55.67;93985.59;5111321;28;20038;-76
2024/03/12 11:07:48;;;;;;;15.52;9.82;;;;;;;13.97;53.21;93976.56;5077143;28;20127;-76
2024/03/12 11:10:13;;;;;;;12.55;7.47;;;;;;;13.49;54.52;93982.69;5111046;28;20038;-76
2024/03/12 11:12:39;;;;;;;9.48;5.00;;;;;;;13.38;55.31;93987.25;5094360;28;20031;-75
2024/03/12 11:15:08;;;;;;;5.47;3.83;;;;;;;13.61;55.10;93976.16;5111158;28;20328;-76
2024/03/12 11:17:34;;;;;;;7.40;4.07;;;;;;;13.89;52.79;93979.19;5111095;28;20031;-76
2024/03/12 11:20:00;;;;;;;5.85;3.20;;;;;;;13.85;52.58;93970.88;5094281;28;20523;-76
2024/03/12 11:22:26;;;;;;;5.70;3.08;;;;;;;13.80;53.79;93967.16;5093896;28;20077;-76
2024/03/12 11:24:52;;;;;;;3.47;2.97;;;;;;;13.68;53.29;93960.63;5076923;28;20028;-76
2024/03/12 11:27:27;;;;;;;5.25;3.03;;;;;;;13.19;54.40;93972.72;5100359;28;20055;-76
2024/03/12 11:29:59;;;;;;;5.07;3.35;;;;;;;13.38;53.37;93971.59;5110798;28;20020;-76
2024/03/12 11:32:26;;;;;;;5.43;3.45;;;;;;;13.21;53.79;93956.94;5112279;28;20039;-76
2024/03/12 11:34:53;;;;;;;3.55;2.10;;;;;;;13.33;52.09;93965.25;5127749;27;20027;-76
2024/03/12 11:37:19;;;;;;;3.88;2.30;;;;;;;13.12;53.27;93955.28;5110580;28;20031;-76
2024/03/12 11:39:44;;;;;;;4.40;3.00;;;;;;;12.96;53.14;93956.09;5127633;27;20115;-76
2024/03/12 11:42:10;;;;;;;3.53;2.65;;;;;;;12.87;52.84;93950.06;5110861;28;20401;-76